Hang Jun 9 — BTYL — position and weather

sailwx.info

Track history (hours):
 
Tides and Currents Weather Stations Pressure Air Temp Water Temp Dewpoint Dewpoint Depression Visibility Wind Speed Wind Dir Waves Ship Positions

Hang Jun 9

Last reported at 2014-Sep-17 08:33 UTC. Time now 2014-Sep-17 09:32 UTC.
Position N 31°37' E 121°18'.

Length 85 m; draft 3.6 m.

Type: Dredging. MMSI: 412070110.

Date/timePositionNaut miles runAvg speedWind from/ knotsBaromVisibWave heightAir tempDewpointWater temp
2014-Sep-17 08:33N 31°37' E 121°18'5 4.3
2014-Sep-17 07:29N 31°33' E 121°20'0 0.2
2014-Sep-17 06:33N 31°33' E 121°20'0 0.2
2014-Sep-17 05:33N 31°33' E 121°20'0 0.3
2014-Sep-17 04:33N 31°33' E 121°20'0 0.4
2014-Sep-17 03:33N 31°34' E 121°20'1 0.7
2014-Sep-17 02:33N 31°34' E 121°19'1 0.6
2014-Sep-17 01:33N 31°34' E 121°20'1 0.9
2014-Sep-17 00:32N 31°33' E 121°20'4 4.4
2014-Sep-16 23:33N 31°37' E 121°18'0 0.0
2014-Sep-16 22:33N 31°37' E 121°18'0 0.0
2014-Sep-16 21:33N 31°37' E 121°18'0 0.0
2014-Sep-16 20:32N 31°37' E 121°18'0 0.1
2014-Sep-16 19:33N 31°37' E 121°18'0 0.1
2014-Sep-16 18:33N 31°37' E 121°18'0 0.0
2014-Sep-16 17:31N 31°37' E 121°18'0 0.0
2014-Sep-16 16:32N 31°37' E 121°18'0 0.0
2014-Sep-16 15:30N 31°37' E 121°18'0 0.0
2014-Sep-16 14:24N 31°37' E 121°18'0 0.0
2014-Sep-16 13:32N 31°37' E 121°18'0 0.1
2014-Sep-16 12:33N 31°37' E 121°18'0 0.0
2014-Sep-16 11:32N 31°37' E 121°18'0 0.0
2014-Sep-16 10:31N 31°37' E 121°18'0 0.0
2014-Sep-16 09:33N 31°37' E 121°18'0 0.1
2014-Sep-16 08:33N 31°37' E 121°18'3 3.4
2014-Sep-16 07:33N 31°34' E 121°19'1 0.7
2014-Sep-16 06:31N 31°34' E 121°19'1 0.9
2014-Sep-16 05:32N 31°33' E 121°20'0 0.2
2014-Sep-16 04:33N 31°33' E 121°20'1 0.5
2014-Sep-16 03:33N 31°34' E 121°20'0 0.5
2014-Sep-16 02:33N 31°33' E 121°19'1 0.6
2014-Sep-16 01:33N 31°33' E 121°20'0 0.1
2014-Sep-16 00:31N 31°33' E 121°20'5 5.3
2014-Sep-15 23:32N 31°37' E 121°17'0 0.5
2014-Sep-15 22:32N 31°38' E 121°17'0 0.0
2014-Sep-15 21:33N 31°38' E 121°17'0 0.0
2014-Sep-15 20:30N 31°38' E 121°17'0 0.0
2014-Sep-15 19:32N 31°38' E 121°17'0 0.1
2014-Sep-15 18:33N 31°38' E 121°17'0 0.0
2014-Sep-15 17:33N 31°38' E 121°17'0 0.1
2014-Sep-15 16:33N 31°38' E 121°17'0 0.0
2014-Sep-15 15:33N 31°38' E 121°17'0 0.0
2014-Sep-15 14:32N 31°38' E 121°17'0 0.0
2014-Sep-15 13:29N 31°38' E 121°17'0 0.1
2014-Sep-15 12:33N 31°38' E 121°17'0 0.0
2014-Sep-15 11:33N 31°38' E 121°17'0 0.1
2014-Sep-15 10:30N 31°38' E 121°17'0 0.0
2014-Sep-15 09:31N 31°38' E 121°17'0 0.0
2014-Sep-15 08:14N 31°38' E 121°17'0 0.0
2014-Sep-15 07:28N 31°38' E 121°17'0 0.0
2014-Sep-15 06:33N 31°38' E 121°17'0 0.1
2014-Sep-15 05:32N 31°38' E 121°17'3 3.1
2014-Sep-15 04:28N 31°35' E 121°19'2 2.2
2014-Sep-15 03:31N 31°33' E 121°20'1 0.8
2014-Sep-15 02:33N 31°34' E 121°20'1 0.9
2014-Sep-15 01:33N 31°34' E 121°19'2 1.7
2014-Sep-15 00:33N 31°33' E 121°20'5 5.3
2014-Sep-14 23:31N 31°38' E 121°17'0 0.0
2014-Sep-14 22:33N 31°38' E 121°17'0 0.1
2014-Sep-14 21:24N 31°38' E 121°17'0 0.0
2014-Sep-14 20:33N 31°38' E 121°17'0 0.0
2014-Sep-14 19:30N 31°38' E 121°17'0 0.0
2014-Sep-14 18:27N 31°38' E 121°17'0 0.1
2014-Sep-14 17:32N 31°38' E 121°17'0 0.0
2014-Sep-14 16:31N 31°38' E 121°17'0 0.0
2014-Sep-14 15:33N 31°38' E 121°17'0 0.0
2014-Sep-14 14:33N 31°38' E 121°17'0 0.0
2014-Sep-14 13:32N 31°38' E 121°17'0 0.1
2014-Sep-14 12:29N 31°38' E 121°17'0 0.0
2014-Sep-14 11:31N 31°38' E 121°17'0 0.1
2014-Sep-14 10:33N 31°38' E 121°17'0 0.1
2014-Sep-14 09:33N 31°38' E 121°17'6 6.3
2014-Sep-14 08:33N 31°32' E 121°20'1 1.2
2014-Sep-14 07:32N 31°33' E 121°20'1 0.6
2014-Sep-14 06:32N 31°34' E 121°19'0 0.4
2014-Sep-14 05:33N 31°34' E 121°19'1 0.8
2014-Sep-14 04:30N 31°34' E 121°20'1 0.7
2014-Sep-14 03:23N 31°33' E 121°20'4 4.5
2014-Sep-14 02:33N 31°36' E 121°17'1 0.8
2014-Sep-14 01:21N 31°37' E 121°18'0 0.0
2014-Sep-13 21:31N 31°37' E 121°18'0 0.0
2014-Sep-13 20:32N 31°37' E 121°18'0 0.0
2014-Sep-13 19:32N 31°37' E 121°18'0 0.0
2014-Sep-13 18:31N 31°37' E 121°18'0 0.1
2014-Sep-13 17:33N 31°37' E 121°18'0 0.1
2014-Sep-13 16:33N 31°37' E 121°18'0 0.1
2014-Sep-13 15:32N 31°37' E 121°18'0 0.0
2014-Sep-13 14:33N 31°37' E 121°18'0 0.0
2014-Sep-13 13:33N 31°37' E 121°18'0 0.0
2014-Sep-13 12:33N 31°37' E 121°18'0 0.0
2014-Sep-13 11:33N 31°37' E 121°18'0 0.0
2014-Sep-13 10:33N 31°37' E 121°18'0 0.1
2014-Sep-13 09:33N 31°37' E 121°18'3 3.3
2014-Sep-13 08:33N 31°34' E 121°19'1 1.1
2014-Sep-13 07:34N 31°33' E 121°20'1 0.9
2014-Sep-13 06:33N 31°34' E 121°19'1 0.8
2014-Sep-13 05:33N 31°33' E 121°20'0 0.3
2014-Sep-13 04:33N 31°33' E 121°19'1 0.8
2014-Sep-13 03:33N 31°34' E 121°19'1 1.1
2014-Sep-13 02:33N 31°33' E 121°20'0 0.2
2014-Sep-13 01:32N 31°33' E 121°20'1 0.5
2014-Sep-13 00:30N 31°33' E 121°19'5 5.1
2014-Sep-12 23:32N 31°38' E 121°17'0 0.0
2014-Sep-12 22:33N 31°38' E 121°17'0 0.0
2014-Sep-12 21:33N 31°38' E 121°17'0 0.1
2014-Sep-12 20:33N 31°38' E 121°17'0 0.0
2014-Sep-12 19:30N 31°38' E 121°17'0 0.0
2014-Sep-12 18:32N 31°38' E 121°17'0 0.0
2014-Sep-12 17:30N 31°38' E 121°17'0 0.1
2014-Sep-12 16:33N 31°38' E 121°17'0 0.1
2014-Sep-12 15:33N 31°38' E 121°17'0 0.0
2014-Sep-12 14:31N 31°38' E 121°17'0 0.0
2014-Sep-12 13:32N 31°38' E 121°17'0 0.0
2014-Sep-12 12:33N 31°38' E 121°17'0 0.0
2014-Sep-12 11:30N 31°38' E 121°17'0 0.1
2014-Sep-12 10:33N 31°38' E 121°17'0 0.1
2014-Sep-12 09:31N 31°38' E 121°17'0 0.1
2014-Sep-12 08:33N 31°38' E 121°17'5 4.6
2014-Sep-12 07:34N 31°34' E 121°19'1 0.7
2014-Sep-12 06:33N 31°33' E 121°20'0 0.2
2014-Sep-12 05:33N 31°33' E 121°20'0 0.1
2014-Sep-12 04:33N 31°33' E 121°20'0 0.2
2014-Sep-12 03:33N 31°33' E 121°20'1 0.9
2014-Sep-12 02:33N 31°34' E 121°19'0 0.2
2014-Sep-12 01:33N 31°34' E 121°19'1 0.9
2014-Sep-12 00:33N 31°33' E 121°20'4 4.0
2014-Sep-11 23:33N 31°37' E 121°18'0 0.0
2014-Sep-11 22:28N 31°37' E 121°18'0 0.1
2014-Sep-11 21:28N 31°37' E 121°18'0 0.1
2014-Sep-11 20:33N 31°37' E 121°18'0 0.1
2014-Sep-11 19:32N 31°37' E 121°18'0 0.1
2014-Sep-11 18:33N 31°37' E 121°18'0 0.1
2014-Sep-11 17:33N 31°37' E 121°18'0 0.0
2014-Sep-11 16:32N 31°37' E 121°18'0 0.1
2014-Sep-11 15:32N 31°37' E 121°18'0 0.0
2014-Sep-11 14:33N 31°37' E 121°18'0 0.1
2014-Sep-11 13:33N 31°37' E 121°18'0 0.1
2014-Sep-11 12:33N 31°37' E 121°18'0 0.0
2014-Sep-11 11:32N 31°37' E 121°18'0 0.0
2014-Sep-11 10:33N 31°37' E 121°18'0 0.0
2014-Sep-11 09:31N 31°37' E 121°18'3 2.9
2014-Sep-11 08:33N 31°34' E 121°19'1 1.2
2014-Sep-11 07:33N 31°33' E 121°19'1 0.8
2014-Sep-11 06:33N 31°34' E 121°20'1 0.7
2014-Sep-11 05:33N 31°33' E 121°19'0 0.3
2014-Sep-11 04:32N 31°33' E 121°20'1 0.6
2014-Sep-11 03:32N 31°34' E 121°19'1 0.6
2014-Sep-11 02:33N 31°34' E 121°20'1 1.3
2014-Sep-11 01:33N 31°33' E 121°20'1 1.4
2014-Sep-11 00:31N 31°34' E 121°19'1 1.5
2014-Sep-10 23:33N 31°35' E 121°18'3 2.9
2014-Sep-10 22:32N 31°38' E 121°17'0 0.1
2014-Sep-10 21:30N 31°38' E 121°17'0 0.0
2014-Sep-10 20:33N 31°38' E 121°17'0 0.1
2014-Sep-10 19:31N 31°38' E 121°17'0 0.0
2014-Sep-10 18:33N 31°38' E 121°17'0 0.0
2014-Sep-10 17:33N 31°38' E 121°17'0 0.0
2014-Sep-10 16:33N 31°38' E 121°17'0 0.1
2014-Sep-10 15:32N 31°38' E 121°17'0 0.1
2014-Sep-10 14:31N 31°38' E 121°17'0 0.1
2014-Sep-10 13:33N 31°38' E 121°17'0 0.0
2014-Sep-10 12:33N 31°38' E 121°17'0 0.0
2014-Sep-10 11:32N 31°38' E 121°17'0 0.0
2014-Sep-10 10:26N 31°38' E 121°17'0 0.0
2014-Sep-10 09:33N 31°38' E 121°17'5 5.1
2014-Sep-10 08:33N 31°33' E 121°20'1 0.5
2014-Sep-10 07:33N 31°33' E 121°20'0 0.4
2014-Sep-10 06:33N 31°33' E 121°20'0 0.2
2014-Sep-10 05:31N 31°33' E 121°20'0 0.1
2014-Sep-10 04:33N 31°33' E 121°20'2 1.5
2014-Sep-10 03:33N 31°34' E 121°19'1 0.5
2014-Sep-10 02:32N 31°34' E 121°19'1 1.4
2014-Sep-10 01:33N 31°33' E 121°20'1 0.9
2014-Sep-10 00:33N 31°33' E 121°19'2 1.9
2014-Sep-09 23:32N 31°35' E 121°18'4 3.5
2014-Sep-09 22:31N 31°38' E 121°17'0 0.0
2014-Sep-09 21:33N 31°38' E 121°17'0 0.1
2014-Sep-09 20:33N 31°38' E 121°17'0 0.1
2014-Sep-09 19:33N 31°38' E 121°17'0 0.1
2014-Sep-09 18:31N 31°39' E 121°17'0 0.0
2014-Sep-09 17:33N 31°39' E 121°17'0 0.0
2014-Sep-09 16:33N 31°39' E 121°17'0 0.1
2014-Sep-09 15:33N 31°39' E 121°17'0 0.1
2014-Sep-09 14:27N 31°38' E 121°17'0 0.0
2014-Sep-09 13:33N 31°38' E 121°17'0 0.0
2014-Sep-09 12:33N 31°38' E 121°17'0 0.0
2014-Sep-09 11:30N 31°38' E 121°17'0 0.0
2014-Sep-09 10:33N 31°38' E 121°17'2 2.4
2014-Sep-09 09:32N 31°36' E 121°18'4 3.6
2014-Sep-09 08:32N 31°33' E 121°20'2 1.5
2014-Sep-09 07:33N 31°34' E 121°19'2 1.6
2014-Sep-09 06:33N 31°33' E 121°20'0 0.1
2014-Sep-09 05:33N 31°33' E 121°19'1 0.8
2014-Sep-09 04:31N 31°34' E 121°20'1 0.9
2014-Sep-09 03:33N 31°33' E 121°19'1 1.2
2014-Sep-09 02:29N 31°34' E 121°19'1 0.9
2014-Sep-09 01:33N 31°33' E 121°19'1 1.0
2014-Sep-09 00:33N 31°33' E 121°20'4 4.2
2014-Sep-08 23:30N 31°37' E 121°18'0 0.0
2014-Sep-08 22:26N 31°37' E 121°18'0 0.0
2014-Sep-08 21:32N 31°37' E 121°18'0 0.0
2014-Sep-08 20:34N 31°37' E 121°18'0 0.1
2014-Sep-08 19:33N 31°37' E 121°18'0 0.1
2014-Sep-08 18:33N 31°37' E 121°18'0 0.0
2014-Sep-08 17:31N 31°37' E 121°18'0 0.0
2014-Sep-08 16:31N 31°37' E 121°18'0 0.0
2014-Sep-08 15:33N 31°37' E 121°18'0 0.0
2014-Sep-08 14:33N 31°37' E 121°18'0 0.1
2014-Sep-08 13:33N 31°37' E 121°18'0 0.0
2014-Sep-08 12:33N 31°37' E 121°18'0 0.0
2014-Sep-08 11:30N 31°37' E 121°18'0 0.0
2014-Sep-08 10:33N 31°37' E 121°18'0 0.0
2014-Sep-08 09:32N 31°37' E 121°18'0 0.1
2014-Sep-08 08:32N 31°37' E 121°18'4 4.3
2014-Sep-08 07:31N 31°33' E 121°20'1 1.1
2014-Sep-08 06:33N 31°34' E 121°19'0 0.4
2014-Sep-08 05:31N 31°33' E 121°19'1 1.2
2014-Sep-08 04:33N 31°34' E 121°19'2 1.7
2014-Sep-08 03:33N 31°33' E 121°20'1 1.3
2014-Sep-08 02:31N 31°34' E 121°19'1 1.2
2014-Sep-08 01:33N 31°33' E 121°20'0 0.2
2014-Sep-08 00:33N 31°33' E 121°19'2 1.6
2014-Sep-07 23:32N 31°34' E 121°18'3 3.4
2014-Sep-07 22:34N 31°37' E 121°17'0 0.0
2014-Sep-07 21:33N 31°37' E 121°17'0 0.0
2014-Sep-07 20:32N 31°37' E 121°17'0 0.0
2014-Sep-07 19:33N 31°37' E 121°17'0 0.1
2014-Sep-07 18:32N 31°38' E 121°17'0 0.1
2014-Sep-07 17:32N 31°38' E 121°17'0 0.1
2014-Sep-07 16:32N 31°38' E 121°17'0 0.1
2014-Sep-07 15:33N 31°38' E 121°17'0 0.0
2014-Sep-07 14:33N 31°38' E 121°17'0 0.0
2014-Sep-07 13:33N 31°38' E 121°17'0 0.1
2014-Sep-07 12:33N 31°37' E 121°17'0 0.0
2014-Sep-07 11:33N 31°37' E 121°17'0 0.0
2014-Sep-07 10:33N 31°37' E 121°17'1 1.4
2014-Sep-07 09:31N 31°36' E 121°18'  
Track history (hours):
 
Tides and Currents Weather Stations Pressure Air Temp Water Temp Dewpoint Dewpoint Depression Visibility Wind Speed Wind Dir Waves Ship Positions

Hang Jun 9

Last reported at 2014-Sep-17 08:33 UTC. Time now 2014-Sep-17 09:32 UTC.
Position N 31°37' E 121°18'.

Length 85 m; draft 3.6 m.

Type: Dredging. MMSI: 412070110.

Date/timePositionNaut miles runAvg speedWind from/ knotsBaromVisibWave heightAir tempDewpointWater temp
2014-Sep-17 08:33N 31°37' E 121°18'5 4.3
2014-Sep-17 07:29N 31°33' E 121°20'0 0.2
2014-Sep-17 06:33N 31°33' E 121°20'0 0.2
2014-Sep-17 05:33N 31°33' E 121°20'0 0.3
2014-Sep-17 04:33N 31°33' E 121°20'0 0.4
2014-Sep-17 03:33N 31°34' E 121°20'1 0.7
2014-Sep-17 02:33N 31°34' E 121°19'1 0.6
2014-Sep-17 01:33N 31°34' E 121°20'1 0.9
2014-Sep-17 00:32N 31°33' E 121°20'4 4.4
2014-Sep-16 23:33N 31°37' E 121°18'0 0.0
2014-Sep-16 22:33N 31°37' E 121°18'0 0.0
2014-Sep-16 21:33N 31°37' E 121°18'0 0.0
2014-Sep-16 20:32N 31°37' E 121°18'0 0.1
2014-Sep-16 19:33N 31°37' E 121°18'0 0.1
2014-Sep-16 18:33N 31°37' E 121°18'0 0.0
2014-Sep-16 17:31N 31°37' E 121°18'0 0.0
2014-Sep-16 16:32N 31°37' E 121°18'0 0.0
2014-Sep-16 15:30N 31°37' E 121°18'0 0.0
2014-Sep-16 14:24N 31°37' E 121°18'0 0.0
2014-Sep-16 13:32N 31°37' E 121°18'0 0.1
2014-Sep-16 12:33N 31°37' E 121°18'0 0.0
2014-Sep-16 11:32N 31°37' E 121°18'0 0.0
2014-Sep-16 10:31N 31°37' E 121°18'0 0.0
2014-Sep-16 09:33N 31°37' E 121°18'0 0.1
2014-Sep-16 08:33N 31°37' E 121°18'3 3.4
2014-Sep-16 07:33N 31°34' E 121°19'1 0.7
2014-Sep-16 06:31N 31°34' E 121°19'1 0.9
2014-Sep-16 05:32N 31°33' E 121°20'0 0.2
2014-Sep-16 04:33N 31°33' E 121°20'1 0.5
2014-Sep-16 03:33N 31°34' E 121°20'0 0.5
2014-Sep-16 02:33N 31°33' E 121°19'1 0.6
2014-Sep-16 01:33N 31°33' E 121°20'0 0.1
2014-Sep-16 00:31N 31°33' E 121°20'5 5.3
2014-Sep-15 23:32N 31°37' E 121°17'0 0.5
2014-Sep-15 22:32N 31°38' E 121°17'0 0.0
2014-Sep-15 21:33N 31°38' E 121°17'0 0.0
2014-Sep-15 20:30N 31°38' E 121°17'0 0.0
2014-Sep-15 19:32N 31°38' E 121°17'0 0.1
2014-Sep-15 18:33N 31°38' E 121°17'0 0.0
2014-Sep-15 17:33N 31°38' E 121°17'0 0.1
2014-Sep-15 16:33N 31°38' E 121°17'0 0.0
2014-Sep-15 15:33N 31°38' E 121°17'0 0.0
2014-Sep-15 14:32N 31°38' E 121°17'0 0.0
2014-Sep-15 13:29N 31°38' E 121°17'0 0.1
2014-Sep-15 12:33N 31°38' E 121°17'0 0.0
2014-Sep-15 11:33N 31°38' E 121°17'0 0.1
2014-Sep-15 10:30N 31°38' E 121°17'0 0.0
2014-Sep-15 09:31N 31°38' E 121°17'0 0.0
2014-Sep-15 08:14N 31°38' E 121°17'0 0.0
2014-Sep-15 07:28N 31°38' E 121°17'0 0.0
2014-Sep-15 06:33N 31°38' E 121°17'0 0.1
2014-Sep-15 05:32N 31°38' E 121°17'3 3.1
2014-Sep-15 04:28N 31°35' E 121°19'2 2.2
2014-Sep-15 03:31N 31°33' E 121°20'1 0.8
2014-Sep-15 02:33N 31°34' E 121°20'1 0.9
2014-Sep-15 01:33N 31°34' E 121°19'2 1.7
2014-Sep-15 00:33N 31°33' E 121°20'5 5.3
2014-Sep-14 23:31N 31°38' E 121°17'0 0.0
2014-Sep-14 22:33N 31°38' E 121°17'0 0.1
2014-Sep-14 21:24N 31°38' E 121°17'0 0.0
2014-Sep-14 20:33N 31°38' E 121°17'0 0.0
2014-Sep-14 19:30N 31°38' E 121°17'0 0.0
2014-Sep-14 18:27N 31°38' E 121°17'0 0.1
2014-Sep-14 17:32N 31°38' E 121°17'0 0.0
2014-Sep-14 16:31N 31°38' E 121°17'0 0.0
2014-Sep-14 15:33N 31°38' E 121°17'0 0.0
2014-Sep-14 14:33N 31°38' E 121°17'0 0.0
2014-Sep-14 13:32N 31°38' E 121°17'0 0.1
2014-Sep-14 12:29N 31°38' E 121°17'0 0.0
2014-Sep-14 11:31N 31°38' E 121°17'0 0.1
2014-Sep-14 10:33N 31°38' E 121°17'0 0.1
2014-Sep-14 09:33N 31°38' E 121°17'6 6.3
2014-Sep-14 08:33N 31°32' E 121°20'1 1.2
2014-Sep-14 07:32N 31°33' E 121°20'1 0.6
2014-Sep-14 06:32N 31°34' E 121°19'0 0.4
2014-Sep-14 05:33N 31°34' E 121°19'1 0.8
2014-Sep-14 04:30N 31°34' E 121°20'1 0.7
2014-Sep-14 03:23N 31°33' E 121°20'4 4.5
2014-Sep-14 02:33N 31°36' E 121°17'1 0.8
2014-Sep-14 01:21N 31°37' E 121°18'0 0.0
2014-Sep-13 21:31N 31°37' E 121°18'0 0.0
2014-Sep-13 20:32N 31°37' E 121°18'0 0.0
2014-Sep-13 19:32N 31°37' E 121°18'0 0.0
2014-Sep-13 18:31N 31°37' E 121°18'0 0.1
2014-Sep-13 17:33N 31°37' E 121°18'0 0.1
2014-Sep-13 16:33N 31°37' E 121°18'0 0.1
2014-Sep-13 15:32N 31°37' E 121°18'0 0.0
2014-Sep-13 14:33N 31°37' E 121°18'0 0.0
2014-Sep-13 13:33N 31°37' E 121°18'0 0.0
2014-Sep-13 12:33N 31°37' E 121°18'0 0.0
2014-Sep-13 11:33N 31°37' E 121°18'0 0.0
2014-Sep-13 10:33N 31°37' E 121°18'0 0.1
2014-Sep-13 09:33N 31°37' E 121°18'3 3.3
2014-Sep-13 08:33N 31°34' E 121°19'1 1.1
2014-Sep-13 07:34N 31°33' E 121°20'1 0.9
2014-Sep-13 06:33N 31°34' E 121°19'1 0.8
2014-Sep-13 05:33N 31°33' E 121°20'0 0.3
2014-Sep-13 04:33N 31°33' E 121°19'1 0.8
2014-Sep-13 03:33N 31°34' E 121°19'1 1.1
2014-Sep-13 02:33N 31°33' E 121°20'0 0.2
2014-Sep-13 01:32N 31°33' E 121°20'1 0.5
2014-Sep-13 00:30N 31°33' E 121°19'5 5.1
2014-Sep-12 23:32N 31°38' E 121°17'0 0.0
2014-Sep-12 22:33N 31°38' E 121°17'0 0.0
2014-Sep-12 21:33N 31°38' E 121°17'0 0.1
2014-Sep-12 20:33N 31°38' E 121°17'0 0.0
2014-Sep-12 19:30N 31°38' E 121°17'0 0.0
2014-Sep-12 18:32N 31°38' E 121°17'0 0.0
2014-Sep-12 17:30N 31°38' E 121°17'0 0.1
2014-Sep-12 16:33N 31°38' E 121°17'0 0.1
2014-Sep-12 15:33N 31°38' E 121°17'0 0.0
2014-Sep-12 14:31N 31°38' E 121°17'0 0.0
2014-Sep-12 13:32N 31°38' E 121°17'0 0.0
2014-Sep-12 12:33N 31°38' E 121°17'0 0.0
2014-Sep-12 11:30N 31°38' E 121°17'0 0.1
2014-Sep-12 10:33N 31°38' E 121°17'0 0.1
2014-Sep-12 09:31N 31°38' E 121°17'0 0.1
2014-Sep-12 08:33N 31°38' E 121°17'5 4.6
2014-Sep-12 07:34N 31°34' E 121°19'1 0.7
2014-Sep-12 06:33N 31°33' E 121°20'0 0.2
2014-Sep-12 05:33N 31°33' E 121°20'0 0.1
2014-Sep-12 04:33N 31°33' E 121°20'0 0.2
2014-Sep-12 03:33N 31°33' E 121°20'1 0.9
2014-Sep-12 02:33N 31°34' E 121°19'0 0.2
2014-Sep-12 01:33N 31°34' E 121°19'1 0.9
2014-Sep-12 00:33N 31°33' E 121°20'4 4.0
2014-Sep-11 23:33N 31°37' E 121°18'0 0.0
2014-Sep-11 22:28N 31°37' E 121°18'0 0.1
2014-Sep-11 21:28N 31°37' E 121°18'0 0.1
2014-Sep-11 20:33N 31°37' E 121°18'0 0.1
2014-Sep-11 19:32N 31°37' E 121°18'0 0.1
2014-Sep-11 18:33N 31°37' E 121°18'0 0.1
2014-Sep-11 17:33N 31°37' E 121°18'0 0.0
2014-Sep-11 16:32N 31°37' E 121°18'0 0.1
2014-Sep-11 15:32N 31°37' E 121°18'0 0.0
2014-Sep-11 14:33N 31°37' E 121°18'0 0.1
2014-Sep-11 13:33N 31°37' E 121°18'0 0.1
2014-Sep-11 12:33N 31°37' E 121°18'0 0.0
2014-Sep-11 11:32N 31°37' E 121°18'0 0.0
2014-Sep-11 10:33N 31°37' E 121°18'0 0.0
2014-Sep-11 09:31N 31°37' E 121°18'3 2.9
2014-Sep-11 08:33N 31°34' E 121°19'1 1.2
2014-Sep-11 07:33N 31°33' E 121°19'1 0.8
2014-Sep-11 06:33N 31°34' E 121°20'1 0.7
2014-Sep-11 05:33N 31°33' E 121°19'0 0.3
2014-Sep-11 04:32N 31°33' E 121°20'1 0.6
2014-Sep-11 03:32N 31°34' E 121°19'1 0.6
2014-Sep-11 02:33N 31°34' E 121°20'1 1.3
2014-Sep-11 01:33N 31°33' E 121°20'1 1.4
2014-Sep-11 00:31N 31°34' E 121°19'1 1.5
2014-Sep-10 23:33N 31°35' E 121°18'3 2.9
2014-Sep-10 22:32N 31°38' E 121°17'0 0.1
2014-Sep-10 21:30N 31°38' E 121°17'0 0.0
2014-Sep-10 20:33N 31°38' E 121°17'0 0.1
2014-Sep-10 19:31N 31°38' E 121°17'0 0.0
2014-Sep-10 18:33N 31°38' E 121°17'0 0.0
2014-Sep-10 17:33N 31°38' E 121°17'0 0.0
2014-Sep-10 16:33N 31°38' E 121°17'0 0.1
2014-Sep-10 15:32N 31°38' E 121°17'0 0.1
2014-Sep-10 14:31N 31°38' E 121°17'0 0.1
2014-Sep-10 13:33N 31°38' E 121°17'0 0.0
2014-Sep-10 12:33N 31°38' E 121°17'0 0.0
2014-Sep-10 11:32N 31°38' E 121°17'0 0.0
2014-Sep-10 10:26N 31°38' E 121°17'0 0.0
2014-Sep-10 09:33N 31°38' E 121°17'5 5.1
2014-Sep-10 08:33N 31°33' E 121°20'1 0.5
2014-Sep-10 07:33N 31°33' E 121°20'0 0.4
2014-Sep-10 06:33N 31°33' E 121°20'0 0.2
2014-Sep-10 05:31N 31°33' E 121°20'0 0.1
2014-Sep-10 04:33N 31°33' E 121°20'2 1.5
2014-Sep-10 03:33N 31°34' E 121°19'1 0.5
2014-Sep-10 02:32N 31°34' E 121°19'1 1.4
2014-Sep-10 01:33N 31°33' E 121°20'1 0.9
2014-Sep-10 00:33N 31°33' E 121°19'2 1.9
2014-Sep-09 23:32N 31°35' E 121°18'4 3.5
2014-Sep-09 22:31N 31°38' E 121°17'0 0.0
2014-Sep-09 21:33N 31°38' E 121°17'0 0.1
2014-Sep-09 20:33N 31°38' E 121°17'0 0.1
2014-Sep-09 19:33N 31°38' E 121°17'0 0.1
2014-Sep-09 18:31N 31°39' E 121°17'0 0.0
2014-Sep-09 17:33N 31°39' E 121°17'0 0.0
2014-Sep-09 16:33N 31°39' E 121°17'0 0.1
2014-Sep-09 15:33N 31°39' E 121°17'0 0.1
2014-Sep-09 14:27N 31°38' E 121°17'0 0.0
2014-Sep-09 13:33N 31°38' E 121°17'0 0.0
2014-Sep-09 12:33N 31°38' E 121°17'0 0.0
2014-Sep-09 11:30N 31°38' E 121°17'0 0.0
2014-Sep-09 10:33N 31°38' E 121°17'2 2.4
2014-Sep-09 09:32N 31°36' E 121°18'4 3.6
2014-Sep-09 08:32N 31°33' E 121°20'2 1.5
2014-Sep-09 07:33N 31°34' E 121°19'2 1.6
2014-Sep-09 06:33N 31°33' E 121°20'0 0.1
2014-Sep-09 05:33N 31°33' E 121°19'1 0.8
2014-Sep-09 04:31N 31°34' E 121°20'1 0.9
2014-Sep-09 03:33N 31°33' E 121°19'1 1.2
2014-Sep-09 02:29N 31°34' E 121°19'1 0.9
2014-Sep-09 01:33N 31°33' E 121°19'1 1.0
2014-Sep-09 00:33N 31°33' E 121°20'4 4.2
2014-Sep-08 23:30N 31°37' E 121°18'0 0.0
2014-Sep-08 22:26N 31°37' E 121°18'0 0.0
2014-Sep-08 21:32N 31°37' E 121°18'0 0.0
2014-Sep-08 20:34N 31°37' E 121°18'0 0.1
2014-Sep-08 19:33N 31°37' E 121°18'0 0.1
2014-Sep-08 18:33N 31°37' E 121°18'0 0.0
2014-Sep-08 17:31N 31°37' E 121°18'0 0.0
2014-Sep-08 16:31N 31°37' E 121°18'0 0.0
2014-Sep-08 15:33N 31°37' E 121°18'0 0.0
2014-Sep-08 14:33N 31°37' E 121°18'0 0.1
2014-Sep-08 13:33N 31°37' E 121°18'0 0.0
2014-Sep-08 12:33N 31°37' E 121°18'0 0.0
2014-Sep-08 11:30N 31°37' E 121°18'0 0.0
2014-Sep-08 10:33N 31°37' E 121°18'0 0.0
2014-Sep-08 09:32N 31°37' E 121°18'0 0.1
2014-Sep-08 08:32N 31°37' E 121°18'4 4.3
2014-Sep-08 07:31N 31°33' E 121°20'1 1.1
2014-Sep-08 06:33N 31°34' E 121°19'0 0.4
2014-Sep-08 05:31N 31°33' E 121°19'1 1.2
2014-Sep-08 04:33N 31°34' E 121°19'2 1.7
2014-Sep-08 03:33N 31°33' E 121°20'1 1.3
2014-Sep-08 02:31N 31°34' E 121°19'1 1.2
2014-Sep-08 01:33N 31°33' E 121°20'0 0.2
2014-Sep-08 00:33N 31°33' E 121°19'2 1.6
2014-Sep-07 23:32N 31°34' E 121°18'3 3.4
2014-Sep-07 22:34N 31°37' E 121°17'0 0.0
2014-Sep-07 21:33N 31°37' E 121°17'0 0.0
2014-Sep-07 20:32N 31°37' E 121°17'0 0.0
2014-Sep-07 19:33N 31°37' E 121°17'0 0.1
2014-Sep-07 18:32N 31°38' E 121°17'0 0.1
2014-Sep-07 17:32N 31°38' E 121°17'0 0.1
2014-Sep-07 16:32N 31°38' E 121°17'0 0.1
2014-Sep-07 15:33N 31°38' E 121°17'0 0.0
2014-Sep-07 14:33N 31°38' E 121°17'0 0.0
2014-Sep-07 13:33N 31°38' E 121°17'0 0.1
2014-Sep-07 12:33N 31°37' E 121°17'0 0.0
2014-Sep-07 11:33N 31°37' E 121°17'0 0.0
2014-Sep-07 10:33N 31°37' E 121°17'1 1.4
2014-Sep-07 09:31N 31°36' E 121°18'  

Dump ship's entire track history